sensor_id;sensor_type;location;lat;lon;timestamp;temperature;humidity
42615;DHT22;28754;47.700;7.924;2023-06-10T00:01:56;18.60;99.90
42615;DHT22;28754;47.700;7.924;2023-06-10T00:04:45;18.60;99.90
42615;DHT22;28754;47.700;7.924;2023-06-10T00:07:32;18.60;99.90
42615;DHT22;28754;47.700;7.924;2023-06-10T00:10:19;18.50;99.90
42615;DHT22;28754;47.700;7.924;2023-06-10T00:13:06;18.50;99.90
42615;DHT22;28754;47.700;7.924;2023-06-10T00:15:57;18.50;99.90
42615;DHT22;28754;47.700;7.924;2023-06-10T00:18:44;18.40;99.90
42615;DHT22;28754;47.700;7.924;2023-06-10T00:21:32;18.40;99.90
42615;DHT22;28754;47.700;7.924;2023-06-10T00:24:26;18.40;99.90
42615;DHT22;28754;47.700;7.924;2023-06-10T00:27:13;18.40;99.90
42615;DHT22;28754;47.700;7.924;2023-06-10T00:29:59;18.40;99.90
42615;DHT22;28754;47.700;7.924;2023-06-10T00:32:47;18.30;99.90
42615;DHT22;28754;47.700;7.924;2023-06-10T00:35:33;18.40;99.90
42615;DHT22;28754;47.700;7.924;2023-06-10T00:38:20;18.30;99.90
42615;DHT22;28754;47.700;7.924;2023-06-10T00:41:07;18.40;99.90
42615;DHT22;28754;47.700;7.924;2023-06-10T00:43:54;18.30;99.90
42615;DHT22;28754;47.700;7.924;2023-06-10T00:46:40;18.30;99.90
42615;DHT22;28754;47.700;7.924;2023-06-10T00:49:27;18.20;99.90
42615;DHT22;28754;47.700;7.924;2023-06-10T00:52:14;18.20;99.90
42615;DHT22;28754;47.700;7.924;2023-06-10T00:55:03;18.20;99.90
42615;DHT22;28754;47.700;7.924;2023-06-10T00:57:51;18.20;99.90
42615;DHT22;28754;47.700;7.924;2023-06-10T01:00:37;18.10;99.90
42615;DHT22;28754;47.700;7.924;2023-06-10T01:03:24;18.10;99.90
42615;DHT22;28754;47.700;7.924;2023-06-10T01:09:59;18.00;99.90
42615;DHT22;28754;47.700;7.924;2023-06-10T01:12:59;17.80;99.90
42615;DHT22;28754;47.700;7.924;2023-06-10T01:15:50;17.70;99.90
42615;DHT22;28754;47.700;7.924;2023-06-10T01:18:40;17.70;99.90
42615;DHT22;28754;47.700;7.924;2023-06-10T01:21:28;17.60;99.90
42615;DHT22;28754;47.700;7.924;2023-06-10T01:24:15;17.50;99.90
42615;DHT22;28754;47.700;7.924;2023-06-10T01:27:08;17.50;99.90
42615;DHT22;28754;47.700;7.924;2023-06-10T01:30:17;17.50;99.90
42615;DHT22;28754;47.700;7.924;2023-06-10T01:33:10;17.40;99.90
42615;DHT22;28754;47.700;7.924;2023-06-10T01:36:02;17.40;99.90
42615;DHT22;28754;47.700;7.924;2023-06-10T01:38:50;17.30;99.90
42615;DHT22;28754;47.700;7.924;2023-06-10T01:41:40;17.20;99.90
42615;DHT22;28754;47.700;7.924;2023-06-10T01:44:26;17.20;99.90
42615;DHT22;28754;47.700;7.924;2023-06-10T01:47:13;17.20;99.90
42615;DHT22;28754;47.700;7.924;2023-06-10T01:50:00;17.20;99.90
42615;DHT22;28754;47.700;7.924;2023-06-10T01:52:48;17.10;99.90
42615;DHT22;28754;47.700;7.924;2023-06-10T01:55:34;17.00;99.90
42615;DHT22;28754;47.700;7.924;2023-06-10T01:58:21;16.90;99.90
42615;DHT22;28754;47.700;7.924;2023-06-10T02:01:08;16.90;99.90
42615;DHT22;28754;47.700;7.924;2023-06-10T02:03:57;16.80;99.90
42615;DHT22;28754;47.700;7.924;2023-06-10T02:06:43;16.60;99.90
42615;DHT22;28754;47.700;7.924;2023-06-10T02:09:31;16.70;99.90
42615;DHT22;28754;47.700;7.924;2023-06-10T02:12:21;16.60;99.90
42615;DHT22;28754;47.700;7.924;2023-06-10T02:15:07;16.70;99.90
42615;DHT22;28754;47.700;7.924;2023-06-10T02:17:54;16.70;99.90
42615;DHT22;28754;47.700;7.924;2023-06-10T02:20:42;16.70;99.90
42615;DHT22;28754;47.700;7.924;2023-06-10T02:23:28;16.50;99.90
42615;DHT22;28754;47.700;7.924;2023-06-10T02:26:15;16.50;99.90
42615;DHT22;28754;47.700;7.924;2023-06-10T02:29:02;16.20;99.90
42615;DHT22;28754;47.700;7.924;2023-06-10T02:31:49;16.20;99.90
42615;DHT22;28754;47.700;7.924;2023-06-10T02:34:39;16.30;99.90
42615;DHT22;28754;47.700;7.924;2023-06-10T02:37:27;16.40;99.90
42615;DHT22;28754;47.700;7.924;2023-06-10T02:40:15;16.50;99.90
42615;DHT22;28754;47.700;7.924;2023-06-10T02:43:01;16.60;99.90
42615;DHT22;28754;47.700;7.924;2023-06-10T02:45:48;16.50;99.90
42615;DHT22;28754;47.700;7.924;2023-06-10T02:48:43;16.40;99.90
42615;DHT22;28754;47.700;7.924;2023-06-10T02:51:31;16.50;99.90
42615;DHT22;28754;47.700;7.924;2023-06-10T02:54:21;16.40;99.90
42615;DHT22;28754;47.700;7.924;2023-06-10T02:57:08;16.40;99.90
42615;DHT22;28754;47.700;7.924;2023-06-10T02:59:56;16.40;99.90
42615;DHT22;28754;47.700;7.924;2023-06-10T03:02:45;16.40;99.90
42615;DHT22;28754;47.700;7.924;2023-06-10T03:05:33;16.40;99.90
42615;DHT22;28754;47.700;7.924;2023-06-10T03:08:23;16.40;99.90
42615;DHT22;28754;47.700;7.924;2023-06-10T03:11:09;16.20;99.90
42615;DHT22;28754;47.700;7.924;2023-06-10T03:13:57;16.20;99.90
42615;DHT22;28754;47.700;7.924;2023-06-10T03:16:46;16.20;99.90
42615;DHT22;28754;47.700;7.924;2023-06-10T03:19:33;16.30;99.90
42615;DHT22;28754;47.700;7.924;2023-06-10T03:22:20;16.20;99.90
42615;DHT22;28754;47.700;7.924;2023-06-10T03:25:24;16.10;99.90
42615;DHT22;28754;47.700;7.924;2023-06-10T03:28:14;16.10;99.90
42615;DHT22;28754;47.700;7.924;2023-06-10T03:31:01;16.00;99.90
42615;DHT22;28754;47.700;7.924;2023-06-10T03:33:51;16.10;99.90
42615;DHT22;28754;47.700;7.924;2023-06-10T03:36:38;16.10;99.90
42615;DHT22;28754;47.700;7.924;2023-06-10T03:39:29;16.20;99.90
42615;DHT22;28754;47.700;7.924;2023-06-10T03:42:17;16.20;99.90
42615;DHT22;28754;47.700;7.924;2023-06-10T03:45:04;16.20;99.90
42615;DHT22;28754;47.700;7.924;2023-06-10T03:47:54;16.20;99.90
42615;DHT22;28754;47.700;7.924;2023-06-10T03:50:46;16.30;99.90
42615;DHT22;28754;47.700;7.924;2023-06-10T03:53:34;16.40;99.90
42615;DHT22;28754;47.700;7.924;2023-06-10T03:56:20;16.40;99.90
42615;DHT22;28754;47.700;7.924;2023-06-10T03:59:07;16.30;99.90
42615;DHT22;28754;47.700;7.924;2023-06-10T04:01:54;16.20;99.90
42615;DHT22;28754;47.700;7.924;2023-06-10T04:04:41;16.20;99.90
42615;DHT22;28754;47.700;7.924;2023-06-10T04:07:27;16.20;99.90
42615;DHT22;28754;47.700;7.924;2023-06-10T04:10:15;16.30;99.90
42615;DHT22;28754;47.700;7.924;2023-06-10T04:13:02;16.30;99.90
42615;DHT22;28754;47.700;7.924;2023-06-10T04:15:53;16.40;99.90
42615;DHT22;28754;47.700;7.924;2023-06-10T04:18:43;16.40;99.90
42615;DHT22;28754;47.700;7.924;2023-06-10T04:21:30;16.40;99.90
42615;DHT22;28754;47.700;7.924;2023-06-10T04:24:17;16.40;99.90
42615;DHT22;28754;47.700;7.924;2023-06-10T04:27:05;16.50;99.90
42615;DHT22;28754;47.700;7.924;2023-06-10T04:29:52;16.40;99.90
42615;DHT22;28754;47.700;7.924;2023-06-10T04:32:39;16.40;99.90
42615;DHT22;28754;47.700;7.924;2023-06-10T04:35:29;16.50;99.90
42615;DHT22;28754;47.700;7.924;2023-06-10T04:38:19;16.60;99.90
42615;DHT22;28754;47.700;7.924;2023-06-10T04:41:05;16.70;99.90
42615;DHT22;28754;47.700;7.924;2023-06-10T04:43:55;16.90;99.90
42615;DHT22;28754;47.700;7.924;2023-06-10T04:46:41;16.90;99.90
42615;DHT22;28754;47.700;7.924;2023-06-10T04:49:28;17.00;99.90
42615;DHT22;28754;47.700;7.924;2023-06-10T04:52:16;17.10;99.90
42615;DHT22;28754;47.700;7.924;2023-06-10T04:55:02;17.20;99.90
42615;DHT22;28754;47.700;7.924;2023-06-10T04:57:49;17.30;99.90
42615;DHT22;28754;47.700;7.924;2023-06-10T05:00:36;17.30;99.90
42615;DHT22;28754;47.700;7.924;2023-06-10T05:03:23;17.40;99.90
42615;DHT22;28754;47.700;7.924;2023-06-10T05:06:10;17.30;99.90
42615;DHT22;28754;47.700;7.924;2023-06-10T05:08:56;17.30;99.90
42615;DHT22;28754;47.700;7.924;2023-06-10T05:11:43;17.40;99.90
42615;DHT22;28754;47.700;7.924;2023-06-10T05:14:31;17.40;99.90
42615;DHT22;28754;47.700;7.924;2023-06-10T05:17:18;17.50;99.90
42615;DHT22;28754;47.700;7.924;2023-06-10T05:20:05;17.60;99.90
42615;DHT22;28754;47.700;7.924;2023-06-10T05:22:52;17.70;99.90
42615;DHT22;28754;47.700;7.924;2023-06-10T05:25:39;17.80;99.90
42615;DHT22;28754;47.700;7.924;2023-06-10T05:28:26;17.90;99.90
42615;DHT22;28754;47.700;7.924;2023-06-10T05:31:12;18.00;99.90
42615;DHT22;28754;47.700;7.924;2023-06-10T05:33:59;18.10;99.90
42615;DHT22;28754;47.700;7.924;2023-06-10T05:36:46;18.20;99.90
42615;DHT22;28754;47.700;7.924;2023-06-10T05:39:32;18.30;99.90
42615;DHT22;28754;47.700;7.924;2023-06-10T05:42:19;18.40;99.90
42615;DHT22;28754;47.700;7.924;2023-06-10T05:45:06;18.40;99.90
42615;DHT22;28754;47.700;7.924;2023-06-10T05:47:53;18.50;99.90
42615;DHT22;28754;47.700;7.924;2023-06-10T05:50:40;18.70;99.90
42615;DHT22;28754;47.700;7.924;2023-06-10T05:53:28;18.80;99.90
42615;DHT22;28754;47.700;7.924;2023-06-10T05:56:15;18.60;99.90
42615;DHT22;28754;47.700;7.924;2023-06-10T05:59:02;18.60;99.90
42615;DHT22;28754;47.700;7.924;2023-06-10T06:01:49;18.70;99.90
42615;DHT22;28754;47.700;7.924;2023-06-10T06:04:36;18.70;99.90
42615;DHT22;28754;47.700;7.924;2023-06-10T06:07:23;19.00;99.90
42615;DHT22;28754;47.700;7.924;2023-06-10T06:10:09;18.90;99.90
42615;DHT22;28754;47.700;7.924;2023-06-10T06:12:56;18.80;99.90
42615;DHT22;28754;47.700;7.924;2023-06-10T06:15:43;18.70;99.90
42615;DHT22;28754;47.700;7.924;2023-06-10T06:18:30;19.00;99.90
42615;DHT22;28754;47.700;7.924;2023-06-10T06:21:18;19.00;99.90
42615;DHT22;28754;47.700;7.924;2023-06-10T06:24:05;18.70;99.90
42615;DHT22;28754;47.700;7.924;2023-06-10T06:26:52;18.90;99.90
42615;DHT22;28754;47.700;7.924;2023-06-10T06:29:39;19.20;99.90
42615;DHT22;28754;47.700;7.924;2023-06-10T06:32:25;19.30;99.90
42615;DHT22;28754;47.700;7.924;2023-06-10T06:35:13;19.50;99.90
42615;DHT22;28754;47.700;7.924;2023-06-10T06:38:00;19.20;99.90
42615;DHT22;28754;47.700;7.924;2023-06-10T06:40:49;19.10;99.90
42615;DHT22;28754;47.700;7.924;2023-06-10T06:43:36;18.90;99.90
42615;DHT22;28754;47.700;7.924;2023-06-10T06:46:41;18.50;99.90
42615;DHT22;28754;47.700;7.924;2023-06-10T06:49:28;18.80;99.90
42615;DHT22;28754;47.700;7.924;2023-06-10T06:52:15;19.30;99.90
42615;DHT22;28754;47.700;7.924;2023-06-10T06:55:02;19.30;99.90
42615;DHT22;28754;47.700;7.924;2023-06-10T06:57:49;19.50;99.90
42615;DHT22;28754;47.700;7.924;2023-06-10T07:00:35;19.60;99.90
42615;DHT22;28754;47.700;7.924;2023-06-10T07:03:22;19.70;99.90
42615;DHT22;28754;47.700;7.924;2023-06-10T07:06:09;19.70;99.90
42615;DHT22;28754;47.700;7.924;2023-06-10T07:08:56;19.90;99.90
42615;DHT22;28754;47.700;7.924;2023-06-10T07:11:43;20.30;99.90
42615;DHT22;28754;47.700;7.924;2023-06-10T07:14:30;20.70;99.90
42615;DHT22;28754;47.700;7.924;2023-06-10T07:17:17;20.90;99.90
42615;DHT22;28754;47.700;7.924;2023-06-10T07:20:04;20.60;99.90
42615;DHT22;28754;47.700;7.924;2023-06-10T07:22:51;20.80;99.90
42615;DHT22;28754;47.700;7.924;2023-06-10T07:25:38;21.00;99.90
42615;DHT22;28754;47.700;7.924;2023-06-10T07:28:25;21.20;99.90
42615;DHT22;28754;47.700;7.924;2023-06-10T07:31:11;20.80;99.90
42615;DHT22;28754;47.700;7.924;2023-06-10T07:33:58;20.80;99.90
42615;DHT22;28754;47.700;7.924;2023-06-10T07:36:45;20.40;99.90
42615;DHT22;28754;47.700;7.924;2023-06-10T07:39:32;20.70;99.90
42615;DHT22;28754;47.700;7.924;2023-06-10T07:42:18;20.30;99.90
42615;DHT22;28754;47.700;7.924;2023-06-10T07:45:05;20.00;99.90
42615;DHT22;28754;47.700;7.924;2023-06-10T07:47:52;19.80;99.90
42615;DHT22;28754;47.700;7.924;2023-06-10T07:50:39;20.30;99.90
42615;DHT22;28754;47.700;7.924;2023-06-10T07:53:26;20.70;99.90
42615;DHT22;28754;47.700;7.924;2023-06-10T07:56:13;21.10;99.90
42615;DHT22;28754;47.700;7.924;2023-06-10T07:59:00;21.40;99.90
42615;DHT22;28754;47.700;7.924;2023-06-10T08:01:46;21.80;99.90
42615;DHT22;28754;47.700;7.924;2023-06-10T08:04:33;21.90;99.90
42615;DHT22;28754;47.700;7.924;2023-06-10T08:07:21;21.70;99.90
42615;DHT22;28754;47.700;7.924;2023-06-10T08:10:08;21.30;99.90
42615;DHT22;28754;47.700;7.924;2023-06-10T08:12:55;21.20;99.90
42615;DHT22;28754;47.700;7.924;2023-06-10T08:15:42;21.00;99.90
42615;DHT22;28754;47.700;7.924;2023-06-10T08:18:28;21.60;99.90
42615;DHT22;28754;47.700;7.924;2023-06-10T08:21:15;21.30;99.90
42615;DHT22;28754;47.700;7.924;2023-06-10T08:24:02;21.10;99.90
42615;DHT22;28754;47.700;7.924;2023-06-10T08:26:49;21.40;99.90
42615;DHT22;28754;47.700;7.924;2023-06-10T08:29:36;21.90;99.90
42615;DHT22;28754;47.700;7.924;2023-06-10T08:32:23;21.20;99.90
42615;DHT22;28754;47.700;7.924;2023-06-10T08:35:09;21.40;99.90
42615;DHT22;28754;47.700;7.924;2023-06-10T08:37:56;21.70;99.90
42615;DHT22;28754;47.700;7.924;2023-06-10T08:40:43;21.50;99.90
42615;DHT22;28754;47.700;7.924;2023-06-10T08:43:34;21.70;99.90
42615;DHT22;28754;47.700;7.924;2023-06-10T08:46:25;21.50;99.90
42615;DHT22;28754;47.700;7.924;2023-06-10T08:49:18;21.00;99.90
42615;DHT22;28754;47.700;7.924;2023-06-10T08:52:13;21.40;99.90
42615;DHT22;28754;47.700;7.924;2023-06-10T08:55:15;21.70;99.90
42615;DHT22;28754;47.700;7.924;2023-06-10T08:58:06;21.80;99.90
42615;DHT22;28754;47.700;7.924;2023-06-10T09:00:53;21.40;99.90
42615;DHT22;28754;47.700;7.924;2023-06-10T09:03:41;21.60;99.90
42615;DHT22;28754;47.700;7.924;2023-06-10T09:06:28;21.30;99.90
42615;DHT22;28754;47.700;7.924;2023-06-10T09:09:15;21.40;99.90
42615;DHT22;28754;47.700;7.924;2023-06-10T09:12:02;21.30;99.90
42615;DHT22;28754;47.700;7.924;2023-06-10T09:14:49;21.50;99.90
42615;DHT22;28754;47.700;7.924;2023-06-10T09:17:36;21.40;99.90
42615;DHT22;28754;47.700;7.924;2023-06-10T09:20:24;21.40;99.90
42615;DHT22;28754;47.700;7.924;2023-06-10T09:23:11;21.50;99.90
42615;DHT22;28754;47.700;7.924;2023-06-10T09:25:59;21.20;99.90
42615;DHT22;28754;47.700;7.924;2023-06-10T09:28:49;21.60;99.90
42615;DHT22;28754;47.700;7.924;2023-06-10T09:31:39;21.40;99.90
42615;DHT22;28754;47.700;7.924;2023-06-10T09:34:28;21.10;99.90
42615;DHT22;28754;47.700;7.924;2023-06-10T09:37:22;21.10;99.90
42615;DHT22;28754;47.700;7.924;2023-06-10T09:40:11;21.80;99.90
42615;DHT22;28754;47.700;7.924;2023-06-10T09:43:01;21.70;99.90
42615;DHT22;28754;47.700;7.924;2023-06-10T09:45:51;21.70;99.90
42615;DHT22;28754;47.700;7.924;2023-06-10T09:48:43;21.50;99.90
42615;DHT22;28754;47.700;7.924;2023-06-10T09:51:30;21.30;99.90
42615;DHT22;28754;47.700;7.924;2023-06-10T09:54:17;21.50;99.90
42615;DHT22;28754;47.700;7.924;2023-06-10T09:57:07;21.40;99.90
42615;DHT22;28754;47.700;7.924;2023-06-10T09:59:57;21.60;99.90
42615;DHT22;28754;47.700;7.924;2023-06-10T10:02:52;21.30;99.90
42615;DHT22;28754;47.700;7.924;2023-06-10T10:05:40;21.10;99.90
42615;DHT22;28754;47.700;7.924;2023-06-10T10:08:27;21.20;99.90
42615;DHT22;28754;47.700;7.924;2023-06-10T10:11:17;21.10;99.90
42615;DHT22;28754;47.700;7.924;2023-06-10T10:14:06;21.10;99.90
42615;DHT22;28754;47.700;7.924;2023-06-10T10:16:54;21.70;99.90
42615;DHT22;28754;47.700;7.924;2023-06-10T10:19:50;21.90;99.90
42615;DHT22;28754;47.700;7.924;2023-06-10T10:22:41;22.40;99.90
42615;DHT22;28754;47.700;7.924;2023-06-10T10:25:38;21.60;99.90
42615;DHT22;28754;47.700;7.924;2023-06-10T10:28:41;21.60;99.90
42615;DHT22;28754;47.700;7.924;2023-06-10T10:31:32;21.60;99.90
42615;DHT22;28754;47.700;7.924;2023-06-10T10:34:34;21.30;99.90
42615;DHT22;28754;47.700;7.924;2023-06-10T10:37:26;21.00;99.90
42615;DHT22;28754;47.700;7.924;2023-06-10T10:40:14;21.00;99.90
42615;DHT22;28754;47.700;7.924;2023-06-10T10:43:02;21.10;99.90
42615;DHT22;28754;47.700;7.924;2023-06-10T10:46:03;21.60;99.90
42615;DHT22;28754;47.700;7.924;2023-06-10T10:48:56;21.60;99.90
42615;DHT22;28754;47.700;7.924;2023-06-10T10:51:58;21.50;99.90
42615;DHT22;28754;47.700;7.924;2023-06-10T10:54:46;21.90;99.90
42615;DHT22;28754;47.700;7.924;2023-06-10T10:57:38;22.90;99.90
42615;DHT22;28754;47.700;7.924;2023-06-10T11:00:33;23.80;99.90
42615;DHT22;28754;47.700;7.924;2023-06-10T11:03:21;24.70;99.90
42615;DHT22;28754;47.700;7.924;2023-06-10T11:06:13;24.80;99.90
42615;DHT22;28754;47.700;7.924;2023-06-10T11:09:00;24.20;99.90
42615;DHT22;28754;47.700;7.924;2023-06-10T11:12:22;24.20;99.90
42615;DHT22;28754;47.700;7.924;2023-06-10T11:15:10;25.20;99.90
42615;DHT22;28754;47.700;7.924;2023-06-10T11:21:02;26.00;99.90
42615;DHT22;28754;47.700;7.924;2023-06-10T11:23:50;25.30;99.90
42615;DHT22;28754;47.700;7.924;2023-06-10T11:26:44;24.70;99.90
42615;DHT22;28754;47.700;7.924;2023-06-10T11:29:30;24.70;99.90
42615;DHT22;28754;47.700;7.924;2023-06-10T11:32:17;24.40;99.90
42615;DHT22;28754;47.700;7.924;2023-06-10T11:35:05;25.00;99.90
42615;DHT22;28754;47.700;7.924;2023-06-10T11:37:54;25.30;99.90
42615;DHT22;28754;47.700;7.924;2023-06-10T11:40:48;25.80;99.90
42615;DHT22;28754;47.700;7.924;2023-06-10T11:43:36;26.10;99.90
42615;DHT22;28754;47.700;7.924;2023-06-10T11:46:24;26.10;99.90
42615;DHT22;28754;47.700;7.924;2023-06-10T11:49:14;24.80;99.90
42615;DHT22;28754;47.700;7.924;2023-06-10T11:52:02;24.60;99.90
42615;DHT22;28754;47.700;7.924;2023-06-10T11:54:55;25.40;99.90
42615;DHT22;28754;47.700;7.924;2023-06-10T11:57:42;25.00;99.90
42615;DHT22;28754;47.700;7.924;2023-06-10T12:00:28;24.60;99.90
42615;DHT22;28754;47.700;7.924;2023-06-10T12:03:16;24.40;99.90
42615;DHT22;28754;47.700;7.924;2023-06-10T12:06:06;24.90;99.90
42615;DHT22;28754;47.700;7.924;2023-06-10T12:08:54;25.40;99.90
42615;DHT22;28754;47.700;7.924;2023-06-10T12:11:43;26.30;99.90
42615;DHT22;28754;47.700;7.924;2023-06-10T12:14:56;25.80;99.90
42615;DHT22;28754;47.700;7.924;2023-06-10T12:17:43;24.80;99.90
42615;DHT22;28754;47.700;7.924;2023-06-10T12:20:31;25.60;99.90
42615;DHT22;28754;47.700;7.924;2023-06-10T12:23:22;26.50;99.90
42615;DHT22;28754;47.700;7.924;2023-06-10T12:26:09;26.70;99.90
42615;DHT22;28754;47.700;7.924;2023-06-10T12:28:56;26.50;99.90
42615;DHT22;28754;47.700;7.924;2023-06-10T12:32:02;26.90;99.90
42615;DHT22;28754;47.700;7.924;2023-06-10T12:35:02;27.00;99.90
42615;DHT22;28754;47.700;7.924;2023-06-10T12:40:48;27.30;99.90
42615;DHT22;28754;47.700;7.924;2023-06-10T12:43:35;27.80;99.90
42615;DHT22;28754;47.700;7.924;2023-06-10T12:46:21;27.60;99.90
42615;DHT22;28754;47.700;7.924;2023-06-10T12:49:20;27.00;99.90
42615;DHT22;28754;47.700;7.924;2023-06-10T12:52:07;26.60;99.90
42615;DHT22;28754;47.700;7.924;2023-06-10T12:54:54;26.20;99.90
42615;DHT22;28754;47.700;7.924;2023-06-10T12:57:48;26.00;99.90
42615;DHT22;28754;47.700;7.924;2023-06-10T13:00:35;26.30;99.90
42615;DHT22;28754;47.700;7.924;2023-06-10T13:03:22;26.20;99.90
42615;DHT22;28754;47.700;7.924;2023-06-10T13:06:09;26.50;99.90
42615;DHT22;28754;47.700;7.924;2023-06-10T13:08:55;26.50;99.90
42615;DHT22;28754;47.700;7.924;2023-06-10T13:11:42;26.50;99.90
42615;DHT22;28754;47.700;7.924;2023-06-10T13:14:29;26.40;99.90
42615;DHT22;28754;47.700;7.924;2023-06-10T13:17:16;26.30;99.90
42615;DHT22;28754;47.700;7.924;2023-06-10T13:20:07;26.40;99.90
42615;DHT22;28754;47.700;7.924;2023-06-10T13:22:53;26.50;99.90
42615;DHT22;28754;47.700;7.924;2023-06-10T13:25:40;26.10;99.90
42615;DHT22;28754;47.700;7.924;2023-06-10T13:28:28;26.00;99.90
42615;DHT22;28754;47.700;7.924;2023-06-10T13:31:14;26.70;99.90
42615;DHT22;28754;47.700;7.924;2023-06-10T13:34:01;26.30;99.90
42615;DHT22;28754;47.700;7.924;2023-06-10T13:36:48;26.70;99.90
42615;DHT22;28754;47.700;7.924;2023-06-10T13:39:34;27.20;99.90
42615;DHT22;28754;47.700;7.924;2023-06-10T13:42:21;27.60;99.90
42615;DHT22;28754;47.700;7.924;2023-06-10T13:45:08;27.80;99.90
42615;DHT22;28754;47.700;7.924;2023-06-10T13:47:55;27.40;99.90
42615;DHT22;28754;47.700;7.924;2023-06-10T13:50:42;27.20;99.90
42615;DHT22;28754;47.700;7.924;2023-06-10T13:53:31;26.80;99.90
42615;DHT22;28754;47.700;7.924;2023-06-10T13:56:18;26.70;99.90
42615;DHT22;28754;47.700;7.924;2023-06-10T13:59:05;27.00;99.90
42615;DHT22;28754;47.700;7.924;2023-06-10T14:01:52;27.00;99.90
42615;DHT22;28754;47.700;7.924;2023-06-10T14:04:38;26.90;99.90
42615;DHT22;28754;47.700;7.924;2023-06-10T14:07:25;26.90;99.90
42615;DHT22;28754;47.700;7.924;2023-06-10T14:10:12;26.80;99.90
42615;DHT22;28754;47.700;7.924;2023-06-10T14:12:59;26.50;99.90
42615;DHT22;28754;47.700;7.924;2023-06-10T14:15:46;26.10;99.90
42615;DHT22;28754;47.700;7.924;2023-06-10T14:18:33;26.10;99.90
42615;DHT22;28754;47.700;7.924;2023-06-10T14:21:20;26.10;99.90
42615;DHT22;28754;47.700;7.924;2023-06-10T14:24:07;26.70;99.90
42615;DHT22;28754;47.700;7.924;2023-06-10T14:26:53;27.40;99.90
42615;DHT22;28754;47.700;7.924;2023-06-10T14:29:40;28.10;99.90
42615;DHT22;28754;47.700;7.924;2023-06-10T14:32:27;27.80;99.90
42615;DHT22;28754;47.700;7.924;2023-06-10T14:35:13;27.50;99.90
42615;DHT22;28754;47.700;7.924;2023-06-10T14:38:00;26.50;99.90
42615;DHT22;28754;47.700;7.924;2023-06-10T14:40:47;26.20;99.90
42615;DHT22;28754;47.700;7.924;2023-06-10T14:43:34;25.60;99.90
42615;DHT22;28754;47.700;7.924;2023-06-10T14:46:21;26.10;99.90
42615;DHT22;28754;47.700;7.924;2023-06-10T14:49:07;26.30;99.90
42615;DHT22;28754;47.700;7.924;2023-06-10T14:51:54;26.30;99.90
42615;DHT22;28754;47.700;7.924;2023-06-10T14:54:41;25.80;99.90
42615;DHT22;28754;47.700;7.924;2023-06-10T14:57:27;25.90;99.90
42615;DHT22;28754;47.700;7.924;2023-06-10T15:00:14;26.00;99.90
42615;DHT22;28754;47.700;7.924;2023-06-10T15:03:03;26.00;99.90
42615;DHT22;28754;47.700;7.924;2023-06-10T15:05:50;25.90;99.90
42615;DHT22;28754;47.700;7.924;2023-06-10T15:08:36;25.90;99.90
42615;DHT22;28754;47.700;7.924;2023-06-10T15:11:23;26.00;99.90
42615;DHT22;28754;47.700;7.924;2023-06-10T15:14:10;26.00;99.90
42615;DHT22;28754;47.700;7.924;2023-06-10T15:16:56;26.00;99.90
42615;DHT22;28754;47.700;7.924;2023-06-10T15:19:45;26.60;99.90
42615;DHT22;28754;47.700;7.924;2023-06-10T15:22:32;26.40;99.90
42615;DHT22;28754;47.700;7.924;2023-06-10T15:25:18;26.30;99.90
42615;DHT22;28754;47.700;7.924;2023-06-10T15:28:05;26.70;99.90
42615;DHT22;28754;47.700;7.924;2023-06-10T15:30:52;26.40;99.90
42615;DHT22;28754;47.700;7.924;2023-06-10T15:33:38;25.70;99.90
42615;DHT22;28754;47.700;7.924;2023-06-10T15:36:26;25.20;99.90
42615;DHT22;28754;47.700;7.924;2023-06-10T15:39:13;25.50;99.90
42615;DHT22;28754;47.700;7.924;2023-06-10T15:41:59;25.30;99.90
42615;DHT22;28754;47.700;7.924;2023-06-10T15:44:46;25.30;99.90
42615;DHT22;28754;47.700;7.924;2023-06-10T15:47:33;25.30;99.90
42615;DHT22;28754;47.700;7.924;2023-06-10T15:50:20;25.00;99.90
42615;DHT22;28754;47.700;7.924;2023-06-10T15:53:06;25.00;99.90
42615;DHT22;28754;47.700;7.924;2023-06-10T15:55:53;25.10;99.90
42615;DHT22;28754;47.700;7.924;2023-06-10T15:58:40;25.10;99.90
42615;DHT22;28754;47.700;7.924;2023-06-10T16:01:27;25.00;99.90
42615;DHT22;28754;47.700;7.924;2023-06-10T16:04:14;24.50;99.90
42615;DHT22;28754;47.700;7.924;2023-06-10T16:07:00;24.30;99.90
42615;DHT22;28754;47.700;7.924;2023-06-10T16:09:47;24.00;99.90
42615;DHT22;28754;47.700;7.924;2023-06-10T16:12:34;24.10;99.90
42615;DHT22;28754;47.700;7.924;2023-06-10T16:15:20;24.20;99.90
42615;DHT22;28754;47.700;7.924;2023-06-10T16:18:07;24.30;99.90
42615;DHT22;28754;47.700;7.924;2023-06-10T16:20:54;24.50;99.90
42615;DHT22;28754;47.700;7.924;2023-06-10T16:23:40;24.80;99.90
42615;DHT22;28754;47.700;7.924;2023-06-10T16:26:27;25.00;99.90
42615;DHT22;28754;47.700;7.924;2023-06-10T16:29:15;24.80;99.90
42615;DHT22;28754;47.700;7.924;2023-06-10T16:32:02;24.80;99.90
42615;DHT22;28754;47.700;7.924;2023-06-10T16:34:49;24.70;99.90
42615;DHT22;28754;47.700;7.924;2023-06-10T16:37:36;24.80;99.90
42615;DHT22;28754;47.700;7.924;2023-06-10T16:40:22;24.80;99.90
42615;DHT22;28754;47.700;7.924;2023-06-10T16:43:09;24.60;99.90
42615;DHT22;28754;47.700;7.924;2023-06-10T16:45:56;24.70;99.90
42615;DHT22;28754;47.700;7.924;2023-06-10T16:48:43;24.60;99.90
42615;DHT22;28754;47.700;7.924;2023-06-10T16:51:30;24.70;99.90
42615;DHT22;28754;47.700;7.924;2023-06-10T16:54:17;24.50;99.90
42615;DHT22;28754;47.700;7.924;2023-06-10T16:57:04;24.40;99.90
42615;DHT22;28754;47.700;7.924;2023-06-10T16:59:51;24.40;99.90
42615;DHT22;28754;47.700;7.924;2023-06-10T17:02:38;24.40;99.90
42615;DHT22;28754;47.700;7.924;2023-06-10T17:05:25;24.20;99.90
42615;DHT22;28754;47.700;7.924;2023-06-10T17:08:11;24.00;99.90
42615;DHT22;28754;47.700;7.924;2023-06-10T17:10:58;23.90;99.90
42615;DHT22;28754;47.700;7.924;2023-06-10T17:13:44;24.20;99.90
42615;DHT22;28754;47.700;7.924;2023-06-10T17:16:31;24.30;99.90
42615;DHT22;28754;47.700;7.924;2023-06-10T17:19:18;24.40;99.90
42615;DHT22;28754;47.700;7.924;2023-06-10T17:22:05;24.40;99.90
42615;DHT22;28754;47.700;7.924;2023-06-10T17:24:51;24.40;99.90
42615;DHT22;28754;47.700;7.924;2023-06-10T17:27:38;24.50;99.90
42615;DHT22;28754;47.700;7.924;2023-06-10T17:30:25;24.50;99.90
42615;DHT22;28754;47.700;7.924;2023-06-10T17:33:11;24.50;99.90
42615;DHT22;28754;47.700;7.924;2023-06-10T17:35:58;24.60;99.90
42615;DHT22;28754;47.700;7.924;2023-06-10T17:38:45;24.60;99.90
42615;DHT22;28754;47.700;7.924;2023-06-10T17:41:31;24.60;99.90
42615;DHT22;28754;47.700;7.924;2023-06-10T17:44:20;24.70;99.90
42615;DHT22;28754;47.700;7.924;2023-06-10T17:47:10;24.70;99.90
42615;DHT22;28754;47.700;7.924;2023-06-10T17:49:57;24.70;99.90
42615;DHT22;28754;47.700;7.924;2023-06-10T17:52:43;24.60;99.90